Wetterdaten: Woche 07.11.16 - 13.11.16 (KW45)
Datum Zeit Temp. A. Feuchte A. Luftdruck Regen Wind Richtung Taupunkt Windchill Windben
07.11.2016 00:00 -0,8 C 96 % 1005,2 hPa 0,0 l/m 0,1 km/h (0 Bft) O -1,3 C -0,8 C 0,6 km/h (0 Bft)
07.11.2016 01:00 -0,4 C 98 % 1005,3 hPa 0,0 l/m 0,2 km/h (0 Bft) O -0,8 C -0,4 C 1,5 km/h (1 Bft)
07.11.2016 02:00 -0,3 C 98 % 1005,6 hPa 0,0 l/m 0,1 km/h (0 Bft) O-SO -0,6 C -0,3 C 0,5 km/h (0 Bft)
07.11.2016 03:00 -0,2 C 98 % 1005,7 hPa 0,0 l/m 0,1 km/h (0 Bft) O-SO -0,5 C -0,2 C 1,2 km/h (1 Bft)
07.11.2016 04:00 -0,0 C 98 % 1005,9 hPa 0,0 l/m 0,3 km/h (0 Bft) O-SO -0,3 C -0,0 C 1,6 km/h (1 Bft)
07.11.2016 05:00 0,2 C 98 % 1006,2 hPa 0,0 l/m 0,4 km/h (0 Bft) O -0,1 C 0,2 C 1,8 km/h (1 Bft)
07.11.2016 06:00 0,3 C 97 % 1006,3 hPa 0,0 l/m 0,4 km/h (0 Bft) O -0,1 C 0,3 C 1,8 km/h (1 Bft)
07.11.2016 07:00 0,6 C 97 % 1006,9 hPa 0,0 l/m 1,8 km/h (1 Bft) O 0,2 C 0,6 C 5,1 km/h (1 Bft)
07.11.2016 08:00 0,7 C 96 % 1007,5 hPa 0,3 l/m 2,0 km/h (1 Bft) NO 0,1 C 0,7 C 5,5 km/h (2 Bft)
07.11.2016 09:00 1,1 C 95 % 1007,9 hPa 0,0 l/m 2,9 km/h (1 Bft) NO 0,4 C 1,1 C 6,7 km/h (2 Bft)
07.11.2016 10:00 1,9 C 93 % 1008,4 hPa 0,0 l/m 3,5 km/h (1 Bft) NO 1,0 C 1,9 C 8,3 km/h (2 Bft)
07.11.2016 11:00 2,3 C 92 % 1008,7 hPa 0,0 l/m 3,9 km/h (1 Bft) O 1,1 C 2,3 C 9,3 km/h (2 Bft)
07.11.2016 12:00 2,3 C 91 % 1008,9 hPa 0,0 l/m 3,7 km/h (1 Bft) O-NO 1,0 C 2,3 C 6,4 km/h (2 Bft)
07.11.2016 13:00 2,3 C 90 % 1008,9 hPa 0,0 l/m 2,5 km/h (1 Bft) O 0,8 C 2,3 C 5,4 km/h (2 Bft)
07.11.2016 14:00 3,7 C 81 % 1009,0 hPa 0,0 l/m 4,4 km/h (1 Bft) O-NO 0,8 C 3,7 C 10,3 km/h (2 Bft)
07.11.2016 15:00 2,3 C 85 % 1009,3 hPa 0,0 l/m 2,4 km/h (1 Bft) O-NO 0,1 C 2,3 C 5,6 km/h (2 Bft)
07.11.2016 16:00 1,8 C 88 % 1009,4 hPa 0,0 l/m 1,6 km/h (1 Bft) NO 0,1 C 1,8 C 4,1 km/h (1 Bft)
07.11.2016 17:00 -0,1 C 93 % 1010,0 hPa 0,0 l/m 0,3 km/h (0 Bft) O -1,2 C -0,1 C 0,9 km/h (0 Bft)
07.11.2016 18:00 -1,2 C 94 % 1010,3 hPa 0,0 l/m 0,0 km/h (0 Bft) O -2,0 C -1,2 C 0,6 km/h (0 Bft)
07.11.2016 19:00 -1,8 C 95 % 1010,6 hPa 0,0 l/m 0,2 km/h (0 Bft) O -2,4 C -1,8 C 0,9 km/h (0 Bft)
07.11.2016 20:00 -2,5 C 96 % 1010,8 hPa 0,0 l/m 0,1 km/h (0 Bft) O -3,1 C -2,5 C 0,5 km/h (0 Bft)
07.11.2016 21:00 -2,9 C 96 % 1010,7 hPa 0,0 l/m 0,1 km/h (0 Bft) O -3,4 C -2,9 C 0,3 km/h (0 Bft)
07.11.2016 22:00 -3,5 C 96 % 1010,6 hPa 0,0 l/m 0,2 km/h (0 Bft) O -4,0 C -3,5 C 0,9 km/h (0 Bft)
07.11.2016 23:00 -3,2 C 96 % 1010,5 hPa 0,0 l/m 0,2 km/h (0 Bft) O-SO -3,7 C -3,2 C 0,9 km/h (0 Bft)
08.11.2016 00:00 -3,8 C 96 % 1010,4 hPa 0,0 l/m 0,1 km/h (0 Bft) O-SO -4,4 C -3,8 C 0,2 km/h (0 Bft)
08.11.2016 01:00 -4,5 C 96 % 1010,2 hPa 0,0 l/m 0,0 km/h (0 Bft) O-SO -5,1 C -4,5 C 0,5 km/h (0 Bft)
08.11.2016 02:00 -4,7 C 96 % 1010,2 hPa 0,0 l/m 0,0 km/h (0 Bft) O-SO -5,2 C -4,7 C 0,3 km/h (0 Bft)
08.11.2016 03:00 -4,6 C 96 % 1010,1 hPa 0,0 l/m 0,0 km/h (0 Bft) O-SO -5,1 C -4,6 C 0,1 km/h (0 Bft)
08.11.2016 04:00 -4,9 C 96 % 1010,0 hPa 0,0 l/m 0,0 km/h (0 Bft) O-SO -5,4 C -4,9 C 0,0 km/h (0 Bft)
08.11.2016 05:00 -5,0 C 95 % 1010,0 hPa 0,0 l/m 0,0 km/h (0 Bft) O-SO -5,6 C -5,0 C 0,1 km/h (0 Bft)
08.11.2016 06:00 -5,0 C 96 % 1010,0 hPa 0,0 l/m 0,0 km/h (0 Bft) O-SO -5,6 C -5,0 C 0,1 km/h (0 Bft)
08.11.2016 07:00 -4,5 C 96 % 1010,1 hPa 0,0 l/m 0,0 km/h (0 Bft) O-SO -5,1 C -4,5 C 0,8 km/h (0 Bft)
08.11.2016 08:00 -3,2 C 97 % 1010,6 hPa 0,0 l/m 0,1 km/h (0 Bft) O-SO -3,6 C -3,2 C 1,1 km/h (0 Bft)
08.11.2016 09:00 -2,3 C 97 % 1010,9 hPa 0,0 l/m 0,4 km/h (0 Bft) O-SO -2,7 C -2,3 C 1,7 km/h (1 Bft)
08.11.2016 10:00 -1,0 C 97 % 1011,3 hPa 0,3 l/m 0,5 km/h (0 Bft) SO -1,4 C -1,0 C 2,0 km/h (1 Bft)
08.11.2016 11:00 0,1 C 95 % 1011,3 hPa 0,0 l/m 2,6 km/h (1 Bft) NO -0,6 C 0,1 C 5,8 km/h (2 Bft)
08.11.2016 12:00 0,6 C 94 % 1011,2 hPa 0,0 l/m 3,0 km/h (1 Bft) NO -0,3 C 0,6 C 6,2 km/h (2 Bft)
08.11.2016 13:00 1,5 C 92 % 1011,0 hPa 0,0 l/m 2,7 km/h (1 Bft) O-NO 0,3 C 1,5 C 6,8 km/h (2 Bft)
08.11.2016 14:00 2,2 C 88 % 1010,9 hPa 0,0 l/m 3,7 km/h (1 Bft) NO 0,3 C 2,2 C 9,4 km/h (2 Bft)
08.11.2016 15:00 1,7 C 88 % 1011,3 hPa 0,0 l/m 3,2 km/h (1 Bft) O-NO -0,0 C 1,7 C 7,9 km/h (2 Bft)
08.11.2016 16:00 1,3 C 90 % 1011,8 hPa 0,0 l/m 3,5 km/h (1 Bft) O -0,2 C 1,3 C 9,3 km/h (2 Bft)
08.11.2016 17:00 0,6 C 94 % 1012,5 hPa 0,0 l/m 1,8 km/h (1 Bft) O-NO -0,3 C 0,6 C 4,3 km/h (1 Bft)
08.11.2016 18:00 0,3 C 95 % 1012,8 hPa 0,0 l/m 2,5 km/h (1 Bft) O-NO -0,4 C 0,3 C 5,5 km/h (2 Bft)
08.11.2016 19:00 0,1 C 96 % 1012,9 hPa 0,0 l/m 1,7 km/h (1 Bft) O-NO -0,5 C 0,1 C 4,9 km/h (1 Bft)
08.11.2016 20:00 0,2 C 95 % 1013,1 hPa 0,0 l/m 1,0 km/h (0 Bft) O-NO -0,5 C 0,2 C 3,5 km/h (1 Bft)
08.11.2016 21:00 0,1 C 95 % 1013,2 hPa 0,0 l/m 0,8 km/h (0 Bft) NO -0,6 C 0,1 C 2,7 km/h (1 Bft)
08.11.2016 22:00 -0,1 C 95 % 1013,1 hPa 0,0 l/m 0,8 km/h (0 Bft) NO -0,8 C -0,1 C 3,2 km/h (1 Bft)
08.11.2016 23:00 -0,0 C 94 % 1012,7 hPa 0,0 l/m 2,2 km/h (1 Bft) NO -0,9 C -0,0 C 5,6 km/h (2 Bft)
09.11.2016 00:00 -0,6 C 94 % 1012,6 hPa 0,0 l/m 0,8 km/h (0 Bft) O -1,4 C -0,6 C 2,5 km/h (1 Bft)
09.11.2016 01:00 -1,0 C 96 % 1011,9 hPa 0,0 l/m 0,3 km/h (0 Bft) O -1,6 C -1,0 C 1,9 km/h (1 Bft)
09.11.2016 02:00 -0,9 C 95 % 1011,1 hPa 0,0 l/m 0,4 km/h (0 Bft) N-NW -1,6 C -0,9 C 2,0 km/h (1 Bft)
09.11.2016 03:00 -0,7 C 93 % 1010,2 hPa 0,0 l/m 0,5 km/h (0 Bft) O-NO -1,7 C -0,7 C 2,4 km/h (1 Bft)
09.11.2016 04:00 -0,5 C 93 % 1009,4 hPa 0,0 l/m 0,2 km/h (0 Bft) N-NW -1,6 C -0,5 C 2,0 km/h (1 Bft)
09.11.2016 05:00 -0,6 C 94 % 1008,3 hPa 0,0 l/m 0,2 km/h (0 Bft) N -1,4 C -0,6 C 1,0 km/h (0 Bft)
09.11.2016 06:00 -0,6 C 94 % 1007,9 hPa 0,0 l/m 1,2 km/h (1 Bft) O -1,5 C -0,6 C 3,6 km/h (1 Bft)
09.11.2016 07:00 -0,6 C 92 % 1007,3 hPa 0,0 l/m 2,9 km/h (1 Bft) O-NO -1,7 C -0,6 C 6,8 km/h (2 Bft)
09.11.2016 08:00 -0,5 C 92 % 1007,0 hPa 0,0 l/m 4,6 km/h (1 Bft) O -1,6 C -0,5 C 11,0 km/h (2 Bft)
09.11.2016 09:00 -0,1 C 92 % 1006,9 hPa 0,0 l/m 3,6 km/h (1 Bft) NO -1,3 C -0,1 C 8,6 km/h (2 Bft)
09.11.2016 10:00 0,8 C 89 % 1006,9 hPa 0,5 l/m 4,8 km/h (1 Bft) NO -0,8 C 0,7 C 11,7 km/h (2 Bft)
09.11.2016 11:00 2,0 C 85 % 1006,1 hPa 0,0 l/m 5,3 km/h (1 Bft) O -0,3 C 1,9 C 13,4 km/h (3 Bft)
09.11.2016 12:00 2,7 C 80 % 1005,3 hPa 0,0 l/m 5,9 km/h (2 Bft) NO -0,4 C 2,4 C 11,6 km/h (2 Bft)
09.11.2016 13:00 2,3 C 83 % 1004,7 hPa 0,0 l/m 5,3 km/h (1 Bft) O-NO -0,2 C 2,1 C 13,8 km/h (3 Bft)
09.11.2016 14:00 1,2 C 91 % 1004,1 hPa 0,3 l/m 2,3 km/h (1 Bft) W-SW -0,1 C 1,2 C 7,2 km/h (2 Bft)
09.11.2016 15:00 1,3 C 92 % 1003,6 hPa 0,0 l/m 1,1 km/h (1 Bft) NO 0,1 C 1,3 C 4,1 km/h (1 Bft)
09.11.2016 16:00 1,1 C 93 % 1003,4 hPa 0,3 l/m 1,6 km/h (1 Bft) O 0,1 C 1,1 C 4,7 km/h (1 Bft)
09.11.2016 17:00 0,7 C 95 % 1003,7 hPa 0,5 l/m 2,8 km/h (1 Bft) O -0,0 C 0,7 C 6,1 km/h (2 Bft)
09.11.2016 18:00 0,6 C 96 % 1004,0 hPa 0,3 l/m 3,1 km/h (1 Bft) O-NO 0,0 C 0,6 C 5,9 km/h (2 Bft)
09.11.2016 19:00 0,5 C 96 % 1004,3 hPa 0,5 l/m 4,2 km/h (1 Bft) NO -0,1 C 0,5 C 9,7 km/h (2 Bft)
09.11.2016 20:00 1,5 C 97 % 1004,3 hPa 3,3 l/m 4,3 km/h (1 Bft) O-NO 1,1 C 1,5 C 10,7 km/h (2 Bft)
09.11.2016 21:00 2,9 C 96 % 1004,9 hPa 3,8 l/m 6,0 km/h (2 Bft) O-NO 2,3 C 2,3 C 15,4 km/h (3 Bft)
09.11.2016 22:00 3,7 C 95 % 1005,2 hPa 2,8 l/m 6,7 km/h (2 Bft) O-NO 2,9 C 3,1 C 17,0 km/h (3 Bft)
09.11.2016 23:00 3,7 C 95 % 1005,7 hPa 1,8 l/m 5,7 km/h (2 Bft) O-NO 3,0 C 3,6 C 16,1 km/h (3 Bft)
10.11.2016 00:00 3,8 C 94 % 1006,3 hPa 0,5 l/m 7,8 km/h (2 Bft) O-NO 2,8 C 2,3 C 17,0 km/h (3 Bft)
10.11.2016 01:00 3,6 C 94 % 1006,5 hPa 1,0 l/m 7,0 km/h (2 Bft) NO 2,8 C 2,8 C 18,8 km/h (3 Bft)
10.11.2016 02:00 3,4 C 94 % 1006,4 hPa 2,5 l/m 7,4 km/h (2 Bft) N-NO 2,6 C 2,4 C 18,5 km/h (3 Bft)
10.11.2016 03:00 3,1 C 95 % 1006,4 hPa 1,8 l/m 8,6 km/h (2 Bft) NO 2,3 C 1,1 C 20,9 km/h (4 Bft)
10.11.2016 04:00 2,8 C 96 % 1006,4 hPa 0,5 l/m 7,6 km/h (2 Bft) NO 2,1 C 1,7 C 18,0 km/h (3 Bft)
10.11.2016 05:00 2,8 C 95 % 1007,0 hPa 0,8 l/m 6,4 km/h (2 Bft) O 2,1 C 2,1 C 14,2 km/h (3 Bft)
10.11.2016 06:00 2,8 C 95 % 1007,4 hPa 0,3 l/m 5,9 km/h (2 Bft) O 2,0 C 2,5 C 14,3 km/h (3 Bft)
10.11.2016 07:00 2,9 C 95 % 1008,4 hPa 0,5 l/m 5,7 km/h (2 Bft) O 2,2 C 2,8 C 15,2 km/h (3 Bft)
10.11.2016 08:00 3,2 C 95 % 1009,4 hPa 0,5 l/m 5,1 km/h (1 Bft) O-NO 2,4 C 3,1 C 13,4 km/h (3 Bft)
10.11.2016 09:00 3,6 C 95 % 1010,0 hPa 0,3 l/m 4,2 km/h (1 Bft) O-NO 2,8 C 3,6 C 11,4 km/h (2 Bft)
10.11.2016 10:00 3,7 C 95 % 1010,5 hPa 0,5 l/m 3,6 km/h (1 Bft) O-NO 2,9 C 3,7 C 9,7 km/h (2 Bft)
10.11.2016 11:00 4,1 C 94 % 1010,6 hPa 0,0 l/m 4,5 km/h (1 Bft) O 3,2 C 4,1 C 11,1 km/h (2 Bft)
10.11.2016 12:00 4,0 C 94 % 1010,5 hPa 0,8 l/m 4,6 km/h (1 Bft) O-NO 3,1 C 3,9 C 9,1 km/h (2 Bft)
10.11.2016 13:00 4,3 C 95 % 1010,0 hPa 0,0 l/m 3,6 km/h (1 Bft) NO 3,6 C 4,3 C 8,7 km/h (2 Bft)
10.11.2016 14:00 4,8 C 94 % 1009,9 hPa 0,0 l/m 3,6 km/h (1 Bft) O-NO 4,0 C 4,8 C 8,3 km/h (2 Bft)
10.11.2016 15:00 4,6 C 95 % 1009,8 hPa 1,3 l/m 2,7 km/h (1 Bft) O 3,8 C 4,6 C 7,4 km/h (2 Bft)
10.11.2016 16:00 4,0 C 95 % 1009,9 hPa 1,3 l/m 3,3 km/h (1 Bft) O-NO 3,2 C 4,0 C 9,1 km/h (2 Bft)
10.11.2016 17:00 3,9 C 96 % 1009,9 hPa 0,8 l/m 3,1 km/h (1 Bft) O-NO 3,3 C 3,9 C 6,7 km/h (2 Bft)
10.11.2016 18:00 4,1 C 96 % 1009,9 hPa 0,0 l/m 3,3 km/h (1 Bft) O-NO 3,6 C 4,1 C 6,9 km/h (2 Bft)
10.11.2016 19:00 4,3 C 96 % 1009,9 hPa 1,0 l/m 2,5 km/h (1 Bft) O-NO 3,7 C 4,3 C 6,0 km/h (2 Bft)
10.11.2016 20:00 4,1 C 96 % 1009,5 hPa 1,0 l/m 1,6 km/h (1 Bft) NO 3,6 C 4,1 C 4,3 km/h (1 Bft)
10.11.2016 21:00 3,5 C 96 % 1009,2 hPa 2,8 l/m 2,6 km/h (1 Bft) O-NO 2,9 C 3,5 C 5,7 km/h (2 Bft)
10.11.2016 22:00 3,1 C 96 % 1008,7 hPa 1,3 l/m 1,1 km/h (0 Bft) O 2,6 C 3,1 C 3,7 km/h (1 Bft)
10.11.2016 23:00 3,1 C 96 % 1008,2 hPa 0,8 l/m 1,9 km/h (1 Bft) N-NW 2,6 C 3,1 C 5,6 km/h (2 Bft)
11.11.2016 00:00 3,1 C 96 % 1007,8 hPa 0,5 l/m 2,1 km/h (1 Bft) N 2,6 C 3,1 C 4,3 km/h (1 Bft)
11.11.2016 01:00 4,2 C 97 % 1007,1 hPa 0,3 l/m 3,8 km/h (1 Bft) O-NO 3,7 C 4,2 C 9,4 km/h (2 Bft)
11.11.2016 02:00 4,0 C 95 % 1007,0 hPa 5,3 l/m 5,2 km/h (1 Bft) O 3,3 C 3,9 C 13,0 km/h (3 Bft)
11.11.2016 03:00 2,7 C 96 % 1006,8 hPa 2,3 l/m 2,5 km/h (1 Bft) O-NO 2,1 C 2,7 C 5,3 km/h (1 Bft)
11.11.2016 04:00 2,5 C 96 % 1006,9 hPa 0,8 l/m 3,4 km/h (1 Bft) O-NO 1,9 C 2,5 C 6,2 km/h (2 Bft)
11.11.2016 05:00 2,4 C 96 % 1007,8 hPa 0,5 l/m 4,4 km/h (1 Bft) O 1,8 C 2,3 C 8,0 km/h (2 Bft)
11.11.2016 06:00 2,2 C 96 % 1008,8 hPa 0,5 l/m 3,6 km/h (1 Bft) O 1,7 C 2,2 C 9,4 km/h (2 Bft)
11.11.2016 07:00 2,5 C 96 % 1010,1 hPa 1,0 l/m 3,5 km/h (1 Bft) NO 1,8 C 2,5 C 10,1 km/h (2 Bft)
11.11.2016 08:00 2,1 C 96 % 1011,8 hPa 0,8 l/m 3,3 km/h (1 Bft) O-NO 1,5 C 2,1 C 8,7 km/h (2 Bft)
11.11.2016 09:00 2,2 C 96 % 1012,8 hPa 0,8 l/m 2,7 km/h (1 Bft) O 1,6 C 2,2 C 7,3 km/h (2 Bft)
11.11.2016 10:00 2,7 C 96 % 1013,6 hPa 0,5 l/m 3,3 km/h (1 Bft) O-NO 2,1 C 2,7 C 10,5 km/h (2 Bft)
11.11.2016 11:00 3,0 C 95 % 1014,4 hPa 0,5 l/m 3,0 km/h (1 Bft) O 2,3 C 3,0 C 7,9 km/h (2 Bft)
11.11.2016 12:00 3,5 C 95 % 1014,8 hPa 0,0 l/m 3,7 km/h (1 Bft) O-NO 2,7 C 3,5 C 8,0 km/h (2 Bft)
11.11.2016 13:00 3,4 C 94 % 1015,4 hPa 0,8 l/m 3,0 km/h (1 Bft) O-NO 2,5 C 3,4 C 9,7 km/h (2 Bft)
11.11.2016 14:00 3,3 C 95 % 1016,0 hPa 0,8 l/m 2,2 km/h (1 Bft) O-NO 2,5 C 3,3 C 5,9 km/h (2 Bft)
11.11.2016 15:00 3,5 C 94 % 1016,9 hPa 0,0 l/m 2,6 km/h (1 Bft) O 2,6 C 3,5 C 7,0 km/h (2 Bft)
11.11.2016 16:00 3,0 C 94 % 1017,8 hPa 0,3 l/m 1,1 km/h (1 Bft) O 2,1 C 3,0 C 4,5 km/h (1 Bft)
11.11.2016 17:00 2,1 C 95 % 1019,1 hPa 1,0 l/m 0,6 km/h (0 Bft) N-NO 1,4 C 2,1 C 2,2 km/h (1 Bft)
11.11.2016 18:00 1,6 C 96 % 1019,7 hPa 0,0 l/m 0,0 km/h (0 Bft) N-NO 1,1 C 1,6 C 0,5 km/h (0 Bft)
11.11.2016 19:00 1,7 C 97 % 1020,7 hPa 0,0 l/m 0,3 km/h (0 Bft) N-NO 1,2 C 1,7 C 1,3 km/h (1 Bft)
11.11.2016 20:00 1,7 C 97 % 1021,4 hPa 0,0 l/m 0,1 km/h (0 Bft) N-NO 1,3 C 1,7 C 0,7 km/h (0 Bft)
11.11.2016 21:00 1,8 C 97 % 1021,9 hPa 0,0 l/m 0,1 km/h (0 Bft) N-NO 1,4 C 1,8 C 1,2 km/h (1 Bft)
11.11.2016 22:00 1,9 C 97 % 1022,3 hPa 0,0 l/m 0,1 km/h (0 Bft) N-NO 1,5 C 1,9 C 0,7 km/h (0 Bft)
11.11.2016 23:00 2,0 C 97 % 1022,5 hPa 0,0 l/m 0,1 km/h (0 Bft) N-NO 1,6 C 2,0 C 0,7 km/h (0 Bft)
12.11.2016 00:00 1,9 C 97 % 1022,6 hPa 0,0 l/m 0,2 km/h (0 Bft) N-NO 1,5 C 1,9 C 1,4 km/h (1 Bft)
12.11.2016 01:00 1,4 C 96 % 1022,8 hPa 0,8 l/m 0,1 km/h (0 Bft) N-NO 0,9 C 1,4 C 1,1 km/h (0 Bft)
12.11.2016 02:00 0,8 C 97 % 1022,9 hPa 0,3 l/m 0,3 km/h (0 Bft) N-NO 0,4 C 0,8 C 1,3 km/h (1 Bft)
12.11.2016 03:00 1,1 C 97 % 1022,9 hPa 0,0 l/m 1,0 km/h (0 Bft) NW 0,7 C 1,1 C 3,6 km/h (1 Bft)
12.11.2016 04:00 0,8 C 97 % 1023,1 hPa 0,0 l/m 1,0 km/h (0 Bft) W 0,3 C 0,8 C 3,5 km/h (1 Bft)
12.11.2016 05:00 0,5 C 96 % 1023,2 hPa 0,3 l/m 0,3 km/h (0 Bft) NW -0,1 C 0,5 C 1,0 km/h (0 Bft)
12.11.2016 06:00 0,2 C 97 % 1023,3 hPa 0,0 l/m 0,3 km/h (0 Bft) NW -0,2 C 0,2 C 1,8 km/h (1 Bft)
12.11.2016 07:00 0,1 C 97 % 1023,7 hPa 0,0 l/m 0,4 km/h (0 Bft) W -0,3 C 0,1 C 2,0 km/h (1 Bft)
12.11.2016 08:00 0,2 C 97 % 1024,0 hPa 0,0 l/m 0,4 km/h (0 Bft) W -0,2 C 0,2 C 2,3 km/h (1 Bft)
12.11.2016 09:00 0,4 C 97 % 1024,2 hPa 0,0 l/m 1,3 km/h (1 Bft) NW 0,0 C 0,4 C 3,5 km/h (1 Bft)
12.11.2016 10:00 0,7 C 96 % 1024,2 hPa 0,3 l/m 0,8 km/h (0 Bft) N-NO 0,2 C 0,7 C 2,8 km/h (1 Bft)
12.11.2016 11:00 1,4 C 95 % 1024,0 hPa 0,5 l/m 0,9 km/h (0 Bft) W-NW 0,7 C 1,4 C 2,6 km/h (1 Bft)
12.11.2016 12:00 1,8 C 93 % 1023,6 hPa 0,0 l/m 0,9 km/h (0 Bft) NO 0,8 C 1,8 C 2,6 km/h (1 Bft)
12.11.2016 13:00 2,1 C 93 % 1023,3 hPa 0,0 l/m 1,0 km/h (0 Bft) W-NW 1,0 C 2,1 C 3,3 km/h (1 Bft)
12.11.2016 14:00 2,3 C 93 % 1023,0 hPa 0,0 l/m 1,2 km/h (1 Bft) NW 1,3 C 2,3 C 3,6 km/h (1 Bft)
12.11.2016 15:00 2,1 C 93 % 1023,1 hPa 0,0 l/m 1,5 km/h (1 Bft) W-NW 1,1 C 2,1 C 3,7 km/h (1 Bft)
12.11.2016 16:00 1,7 C 94 % 1023,1 hPa 0,0 l/m 0,7 km/h (0 Bft) W-NW 0,8 C 1,7 C 2,9 km/h (1 Bft)
12.11.2016 17:00 1,0 C 95 % 1023,4 hPa 0,0 l/m 0,3 km/h (0 Bft) W-NW 0,3 C 1,0 C 1,4 km/h (1 Bft)
12.11.2016 18:00 0,8 C 95 % 1023,5 hPa 0,0 l/m 0,3 km/h (0 Bft) W-NW 0,1 C 0,8 C 1,5 km/h (1 Bft)
12.11.2016 19:00 0,8 C 96 % 1023,6 hPa 0,0 l/m 0,1 km/h (0 Bft) W 0,2 C 0,8 C 1,2 km/h (1 Bft)
12.11.2016 20:00 0,8 C 96 % 1023,4 hPa 0,0 l/m 0,2 km/h (0 Bft) W 0,2 C 0,8 C 1,7 km/h (1 Bft)
12.11.2016 21:00 0,6 C 96 % 1023,6 hPa 0,0 l/m 0,5 km/h (0 Bft) W 0,1 C 0,6 C 2,5 km/h (1 Bft)
12.11.2016 22:00 0,5 C 96 % 1023,6 hPa 0,0 l/m 0,5 km/h (0 Bft) NW -0,0 C 0,5 C 2,5 km/h (1 Bft)
12.11.2016 23:00 0,3 C 96 % 1023,5 hPa 0,0 l/m 0,2 km/h (0 Bft) NW -0,3 C 0,3 C 1,3 km/h (1 Bft)
13.11.2016 00:00 0,1 C 97 % 1023,5 hPa 0,0 l/m 0,3 km/h (0 Bft) NW -0,4 C 0,1 C 1,8 km/h (1 Bft)
13.11.2016 01:00 -0,2 C 97 % 1023,4 hPa 0,0 l/m 0,5 km/h (0 Bft) SW -0,7 C -0,2 C 2,4 km/h (1 Bft)
13.11.2016 02:00 -0,2 C 97 % 1023,5 hPa 0,0 l/m 0,5 km/h (0 Bft) W -0,6 C -0,2 C 2,0 km/h (1 Bft)
13.11.2016 03:00 -0,3 C 97 % 1023,5 hPa 0,0 l/m 0,1 km/h (0 Bft) W -0,7 C -0,3 C 0,9 km/h (0 Bft)
13.11.2016 04:00 -0,2 C 97 % 1023,7 hPa 0,0 l/m 0,3 km/h (0 Bft) W -0,6 C -0,2 C 1,5 km/h (1 Bft)
13.11.2016 05:00 -0,2 C 97 % 1023,7 hPa 0,0 l/m 0,1 km/h (0 Bft) W -0,6 C -0,2 C 0,7 km/h (0 Bft)
13.11.2016 06:00 -0,2 C 97 % 1023,7 hPa 0,0 l/m 0,1 km/h (0 Bft) W -0,6 C -0,2 C 1,1 km/h (1 Bft)
13.11.2016 07:00 -0,0 C 98 % 1024,0 hPa 0,0 l/m 0,3 km/h (0 Bft) W-SW -0,3 C -0,0 C 1,7 km/h (1 Bft)
13.11.2016 08:00 0,2 C 97 % 1024,4 hPa 0,0 l/m 0,6 km/h (0 Bft) W -0,3 C 0,2 C 2,5 km/h (1 Bft)
13.11.2016 09:00 0,7 C 96 % 1024,8 hPa 0,0 l/m 0,5 km/h (0 Bft) W-NW 0,2 C 0,7 C 2,5 km/h (1 Bft)
13.11.2016 10:00 1,5 C 94 % 1024,8 hPa 0,0 l/m 1,1 km/h (0 Bft) W-NW 0,6 C 1,5 C 3,2 km/h (1 Bft)
13.11.2016 11:00 2,4 C 92 % 1024,8 hPa 0,0 l/m 1,8 km/h (1 Bft) NW 1,1 C 2,4 C 4,6 km/h (1 Bft)
13.11.2016 12:00 3,4 C 88 % 1024,6 hPa 0,0 l/m 3,0 km/h (1 Bft) N-NW 1,6 C 3,4 C 5,4 km/h (1 Bft)
13.11.2016 13:00 3,7 C 86 % 1024,3 hPa 0,0 l/m 2,6 km/h (1 Bft) W-NW 1,5 C 3,7 C 5,0 km/h (1 Bft)
13.11.2016 14:00 3,3 C 90 % 1024,2 hPa 0,0 l/m 2,9 km/h (1 Bft) W-NW 1,8 C 3,3 C 5,7 km/h (2 Bft)
13.11.2016 15:00 2,7 C 90 % 1024,6 hPa 0,0 l/m 2,2 km/h (1 Bft) S-SW 1,3 C 2,7 C 4,2 km/h (1 Bft)
13.11.2016 16:00 2,6 C 91 % 1025,1 hPa 0,0 l/m 1,2 km/h (1 Bft) SW 1,2 C 2,6 C 2,8 km/h (1 Bft)
13.11.2016 17:00 2,0 C 92 % 1025,4 hPa 0,0 l/m 1,4 km/h (1 Bft) SW 0,8 C 2,0 C 3,0 km/h (1 Bft)
13.11.2016 18:00 1,2 C 92 % 1025,8 hPa 0,0 l/m 1,2 km/h (1 Bft) SW 0,1 C 1,2 C 3,7 km/h (1 Bft)
13.11.2016 19:00 0,1 C 93 % 1026,5 hPa 0,0 l/m 0,8 km/h (0 Bft) W-SW -0,8 C 0,1 C 2,9 km/h (1 Bft)
13.11.2016 20:00 -0,4 C 94 % 1027,0 hPa 0,0 l/m 1,1 km/h (1 Bft) SW -1,3 C -0,4 C 4,1 km/h (1 Bft)
13.11.2016 21:00 -0,9 C 95 % 1027,6 hPa 0,0 l/m 0,5 km/h (0 Bft) W -1,7 C -0,9 C 2,8 km/h (1 Bft)
13.11.2016 22:00 -1,1 C 95 % 1028,0 hPa 0,0 l/m 0,5 km/h (0 Bft) W -1,8 C -1,1 C 2,5 km/h (1 Bft)
13.11.2016 23:00 -0,9 C 95 % 1028,4 hPa 0,0 l/m 0,9 km/h (0 Bft) W-SW -1,6 C -0,9 C 3,2 km/h (1 Bft)
Min-Datum _ 08.11.16 09.11.16 09.11.16 - 13.11.16 - 08.11.16 08.11.16 13.11.16
_ Min-Zeit 06:00 12:30 16:50 - 18:03 - 06:00 06:00 17:11
Minimum _ -5,1 C 77 % 1003,3 hPa - 0,0 km/h (0 Bft) - -5,8 C -5,1 C 0,0 km/h (0 Bft)
Max-Datum _ 10.11.16 13.11.16 13.11.16 11.11.16 10.11.16 - 10.11.16 10.11.16 10.11.16
_ Max-Zeit 14:15 07:00 23:45 02:35 00:20 - 14:15 14:15 03:10
Maximum _ 4,9 C 98 % 1028,6 hPa 5,3 l/m 12,4 km/h
O-NO (2 Bft)
- 4,2 C 4,9 C 27,4 km/h
O-NO (5 Bft)
Durchschnitt _ 1,1 C 94 % 1014,0 hPa #53,1 l/m 2,0 km/h (1 Bft) O 0,3 C 1,0 C 5,3 km/h (1 Bft)